Fazenda Tres Barras Airport


Codes: SSVY/0
Name: Fazenda Tres Barras Airport
City: Pitangueiras
Country: Brazil
Elevation: 1575 ft.

Photos at Fazenda Tres Barras Airport


   Photos courtesy of SpottingLog. You can add your own sightings and photos by signing up for a free trial today.



No photos found.

Weather at Fazenda Tres Barras Airport


Time (UTC)DescriptionTempratureWindCloud coverageVisibilityPressureHumidity
13-Jun-2024 03:00Clear Sky19°C2 mph, SE0%10000m1018hPa41%
13-Jun-2024 06:00Clear Sky17°C2 mph, SE0%10000m1018hPa47%
13-Jun-2024 09:00Clear Sky13°C2 mph, SE0%10000m1019hPa55%
13-Jun-2024 12:00Clear Sky22°C4 mph, NE0%10000m1020hPa36%
13-Jun-2024 15:00Clear Sky30°C9 mph, N0%10000m1018hPa21%
13-Jun-2024 18:00Clear Sky31°C7 mph, N0%10000m1014hPa18%
13-Jun-2024 21:00Clear Sky23°C4 mph, N0%10000m1015hPa30%
14-Jun-2024 00:00Clear Sky18°C2 mph, E0%10000m1017hPa40%
14-Jun-2024 03:00Clear Sky16°C0 mph, NE0%10000m1018hPa48%
14-Jun-2024 06:00Clear Sky15°C2 mph, E0%10000m1018hPa53%
14-Jun-2024 09:00Clear Sky15°C2 mph, E1%10000m1018hPa55%
14-Jun-2024 12:00Clear Sky23°C7 mph, NE0%10000m1020hPa35%
14-Jun-2024 15:00Clear Sky30°C11 mph, N0%10000m1018hPa28%
14-Jun-2024 18:00Clear Sky31°C9 mph, N0%10000m1014hPa24%
14-Jun-2024 21:00Clear Sky24°C4 mph, NE0%10000m1015hPa39%
15-Jun-2024 00:00Clear Sky20°C2 mph, NE0%10000m1017hPa48%
15-Jun-2024 03:00Clear Sky18°C2 mph, E0%10000m1019hPa58%
15-Jun-2024 06:00Clear Sky17°C2 mph, E0%10000m1018hPa65%
15-Jun-2024 09:00Clear Sky16°C2 mph, E0%10000m1020hPa70%
15-Jun-2024 12:00Clear Sky24°C7 mph, NE0%10000m1022hPa48%
15-Jun-2024 15:00Clear Sky31°C7 mph, N0%10000m1019hPa27%
15-Jun-2024 18:00Clear Sky32°C4 mph, N0%10000m1016hPa22%
15-Jun-2024 21:00Clear Sky24°C4 mph, NW0%10000m1016hPa37%
16-Jun-2024 00:00Clear Sky20°C4 mph, E0%10000m1018hPa45%
16-Jun-2024 03:00Clear Sky18°C2 mph, E0%10000m1018hPa53%
16-Jun-2024 06:00Clear Sky16°C0 mph, S0%10000m1018hPa61%
16-Jun-2024 09:00Clear Sky15°C2 mph, E0%10000m1019hPa68%
16-Jun-2024 12:00Clear Sky23°C4 mph, NE2%10000m1019hPa44%
16-Jun-2024 15:00Clear Sky30°C9 mph, N0%10000m1017hPa27%
16-Jun-2024 18:00Clear Sky31°C7 mph, N0%10000m1013hPa22%
16-Jun-2024 21:00Clear Sky24°C4 mph, N0%10000m1014hPa35%
17-Jun-2024 00:00Clear Sky21°C4 mph, NE0%10000m1015hPa41%
17-Jun-2024 03:00Clear Sky18°C2 mph, N2%10000m1015hPa53%
17-Jun-2024 06:00Clear Sky16°C2 mph, E2%10000m1015hPa59%
17-Jun-2024 09:00Clear Sky15°C2 mph, NE1%10000m1015hPa64%
17-Jun-2024 12:00Clear Sky23°C4 mph, NE0%10000m1016hPa35%
17-Jun-2024 15:00Clear Sky30°C9 mph, N0%10000m1014hPa19%
17-Jun-2024 18:00Clear Sky31°C7 mph, N0%10000m1011hPa15%
17-Jun-2024 21:00Clear Sky23°C4 mph, NE0%10000m1011hPa26%
18-Jun-2024 00:00Clear Sky20°C4 mph, NE0%10000m1012hPa30%